Time;durP1;ratioP1;P1;durP2;ratioP2;P2;SDS_P1;SDS_P2;PMS_P1;PMS_P2;Temp;Humidity;BMP_temperature;BMP_pressure;BME280_temperature;BME280_humidity;BME280_pressure;Samples;Min_cycle;Max_cycle;Signal;HPM_P1;HPM_P2
2021/04/19 00:01:41;;;;;;;9.73;7.25;;;;;;;9.87;66.10;101247.71;1777260;79;25727;-59
2021/04/19 00:04:12;;;;;;;8.00;6.05;;;;;;;9.82;66.19;101246.72;1822636;78;25732;-59
2021/04/19 00:06:42;;;;;;;7.50;6.03;;;;;;;9.79;65.55;101245.61;1826171;78;27746;-59
2021/04/19 00:09:10;;;;;;;11.28;6.28;;;;;;;9.76;65.12;101245.87;1755469;81;25584;-59
2021/04/19 00:11:40;;;;;;;8.33;5.55;;;;;;;9.76;65.08;101243.66;1764969;81;25723;-60
2021/04/19 00:14:09;;;;;;;11.60;6.80;;;;;;;9.80;65.46;101238.42;1755625;81;26925;-59
2021/04/19 00:16:41;;;;;;;9.25;5.40;;;;;;;9.84;65.71;101241.22;1765154;81;26591;-58
2021/04/19 00:19:18;;;;;;;10.30;6.10;;;;;;;9.84;65.43;101242.56;1755396;81;27598;-59
2021/04/19 00:21:49;;;;;;;6.08;5.45;;;;;;;9.85;65.27;101242.94;1765215;81;25498;-58
2021/04/19 00:24:19;;;;;;;7.25;5.37;;;;;;;9.89;65.43;101241.73;1755687;81;25857;-59
2021/04/19 00:26:50;;;;;;;8.53;5.10;;;;;;;9.91;64.63;101243.79;1765361;81;25794;-59
2021/04/19 00:29:18;;;;;;;7.75;5.62;;;;;;;9.92;64.67;101239.29;1755953;81;25801;-58
2021/04/19 00:31:48;;;;;;;16.82;11.28;;;;;;;9.90;64.42;101238.08;1765368;81;28932;-60
2021/04/19 00:34:18;;;;;;;15.50;10.75;;;;;;;9.92;64.92;101238.78;1825987;78;26068;-59
2021/04/19 00:36:52;;;;;;;;;;;;;;;9.92;65.87;101232.56;1757855;81;25369;-59
2021/04/19 00:39:20;;;;;;;18.52;11.40;;;;;;;9.89;66.09;101230.98;1765084;81;25685;-58
2021/04/19 00:41:57;;;;;;;18.42;10.60;;;;;;;9.83;66.14;101230.10;1734215;81;25788;-58
2021/04/19 00:44:29;;;;;;;18.60;10.60;;;;;;;9.76;66.12;101228.41;1733462;82;28232;-60
2021/04/19 00:47:03;;;;;;;14.93;9.05;;;;;;;9.75;65.87;101228.50;1724089;83;25767;-57
2021/04/19 00:49:32;;;;;;;15.78;10.70;;;;;;;9.74;65.91;101226.32;1732991;82;25710;-59
2021/04/19 00:52:06;;;;;;;17.10;9.95;;;;;;;9.71;65.51;101224.73;1792046;80;25717;-58
2021/04/19 00:54:36;;;;;;;14.23;10.90;;;;;;;9.68;66.18;101224.96;1812904;78;25873;-58
2021/04/19 00:57:07;;;;;;;13.22;9.40;;;;;;;9.63;66.47;101231.19;1755914;81;27476;-59
2021/04/19 00:59:39;;;;;;;13.80;10.15;;;;;;;9.54;66.45;101230.55;1743944;81;25794;-58
2021/04/19 01:02:14;;;;;;;13.95;9.75;;;;;;;9.48;66.54;101225.17;1716422;82;25587;-58
2021/04/19 01:04:43;;;;;;;14.83;10.15;;;;;;;9.43;66.53;101225.14;1723570;82;25962;-59
2021/04/19 01:07:11;;;;;;;17.62;10.18;;;;;;;9.38;66.21;101223.66;1731045;82;25683;-58
2021/04/19 01:09:40;;;;;;;13.83;9.68;;;;;;;9.36;66.36;101227.44;1689689;83;27546;-58
2021/04/19 01:12:10;;;;;;;14.00;9.35;;;;;;;9.36;66.24;101223.41;1727862;82;25689;-58
2021/04/19 01:14:38;;;;;;;12.30;8.48;;;;;;;9.37;66.42;101219.75;1721176;82;25827;-58
2021/04/19 01:17:12;;;;;;;16.35;9.40;;;;;;;9.41;66.35;101221.25;1716854;82;25768;-58
2021/04/19 01:19:46;;;;;;;12.18;8.75;;;;;;;9.45;66.44;101221.36;1713819;82;25635;-58
2021/04/19 01:22:20;;;;;;;18.62;9.68;;;;;;;9.47;66.43;101205.12;1734805;82;27525;-58
2021/04/19 01:24:52;;;;;;;17.90;10.00;;;;;;;9.51;66.51;101207.95;1734348;82;26171;-58
2021/04/19 01:27:21;;;;;;;13.58;8.53;;;;;;;9.56;66.51;101208.44;1734982;82;25768;-59
2021/04/19 01:29:50;;;;;;;14.40;8.40;;;;;;;9.58;66.51;101210.53;1734790;82;25557;-59
2021/04/19 01:32:21;;;;;;;13.38;8.75;;;;;;;9.62;66.62;101205.77;1734874;81;25713;-57
2021/04/19 01:34:54;;;;;;;20.10;9.93;;;;;;;9.66;66.59;101206.75;1734916;82;32009;-59
2021/04/19 01:37:23;;;;;;;16.52;8.98;;;;;;;9.72;66.41;101202.73;1734773;82;25738;-58
2021/04/19 01:39:56;;;;;;;15.60;7.92;;;;;;;9.73;65.92;101207.64;1734179;82;25694;-61
2021/04/19 01:42:33;;;;;;;12.45;7.95;;;;;;;9.78;66.07;101212.16;1734177;82;25814;-58
2021/04/19 01:45:06;;;;;;;12.58;8.68;;;;;;;9.85;66.06;101203.97;1733263;82;26309;-58
2021/04/19 01:47:43;;;;;;;12.45;8.50;;;;;;;9.91;65.73;101205.33;1791955;79;28901;-59
2021/04/19 01:50:19;;;;;;;17.12;9.15;;;;;;;9.96;65.75;101205.33;1792035;79;26602;-59
2021/04/19 01:52:50;;;;;;;11.43;8.38;;;;;;;9.99;65.76;101202.41;1724194;83;25758;-58
2021/04/19 01:55:33;;;;;;;16.65;7.40;;;;;;;10.01;65.48;101199.09;1763652;81;25714;-59
2021/04/19 01:58:08;;;;;;;14.50;9.50;;;;;;;10.01;65.85;101197.74;1750166;81;25446;-59
2021/04/19 02:00:40;;;;;;;19.95;9.85;;;;;;;9.98;65.73;101201.17;1734723;81;27640;-58
2021/04/19 02:03:32;;;;;;;13.08;8.73;;;;;;;9.94;65.37;101207.28;1793599;79;25976;-58
2021/04/19 02:06:16;;;;;;;11.33;8.20;;;;;;;9.91;65.13;101206.66;1802461;78;25733;-58
2021/04/19 02:12:22;;;;;;;15.13;7.97;;;;;;;9.87;65.02;101201.52;1837939;77;25271;-59
2021/04/19 02:15:16;;;;;;;12.05;7.90;;;;;;;9.77;65.53;101197.00;1746443;82;25699;-61
2021/04/19 02:18:24;;;;;;;12.83;8.40;;;;;;;9.54;65.61;101168.28;1718042;82;28503;-61
2021/04/19 02:21:03;;;;;;;14.53;9.55;;;;;;;9.67;65.56;101201.75;1745920;81;25729;-62
2021/04/19 02:23:40;;;;;;;11.73;7.90;;;;;;;9.63;65.63;101208.36;1714913;82;25663;-61
2021/04/19 02:26:22;;;;;;;11.40;7.65;;;;;;;9.59;65.98;101204.69;1715234;83;26094;-58
2021/04/19 02:28:56;;;;;;;11.25;8.25;;;;;;;9.53;66.12;101209.54;1738338;82;26096;-58
2021/04/19 02:31:27;;;;;;;12.85;9.03;;;;;;;9.51;66.17;101209.30;1738151;82;28697;-60
2021/04/19 02:33:59;;;;;;;15.23;8.35;;;;;;;9.48;66.27;101207.71;1739855;80;25772;-59
2021/04/19 02:36:31;;;;;;;11.55;7.17;;;;;;;9.48;66.60;101205.49;1793539;80;25744;-59
2021/04/19 02:39:02;;;;;;;13.88;8.23;;;;;;;9.48;67.29;101202.34;1793468;80;25777;-60
2021/04/19 02:41:35;;;;;;;11.65;7.72;;;;;;;9.47;67.21;101201.09;1769009;80;26228;-61
2021/04/19 02:44:11;;;;;;;11.57;7.58;;;;;;;9.47;67.65;101197.06;1721610;82;27609;-57
2021/04/19 02:46:41;;;;;;;13.78;7.17;;;;;;;9.49;67.68;101199.16;1749706;81;26342;-57
2021/04/19 02:49:11;;;;;;;11.28;6.75;;;;;;;9.52;67.93;101196.23;1755358;80;25702;-59
2021/04/19 02:51:42;;;;;;;14.05;7.47;;;;;;;9.52;67.92;101193.55;1780376;79;25483;-58
2021/04/19 02:54:12;;;;;;;12.65;7.10;;;;;;;9.53;67.94;101198.80;1734518;80;25783;-63
2021/04/19 02:56:42;;;;;;;12.95;7.08;;;;;;;9.58;68.03;101193.57;1714291;82;28724;-62
2021/04/19 02:59:13;;;;;;;10.53;7.15;;;;;;;9.62;68.41;101201.27;1712324;82;25689;-60
2021/04/19 03:01:45;;;;;;;14.78;7.55;;;;;;;9.65;68.35;101197.48;1745498;80;25798;-58
2021/04/19 03:04:21;;;;;;;10.80;6.50;;;;;;;9.70;68.44;101193.94;1735137;82;25672;-57
2021/04/19 03:06:55;;;;;;;16.45;7.78;;;;;;;9.74;68.26;101200.80;1732600;81;25748;-57
2021/04/19 03:09:25;;;;;;;11.10;6.78;;;;;;;9.78;68.17;101194.69;1742917;81;28468;-59
2021/04/19 03:12:03;;;;;;;10.90;6.97;;;;;;;9.78;67.71;101199.56;1747234;81;26154;-57
2021/04/19 03:14:38;;;;;;;12.50;8.10;;;;;;;9.79;67.87;101201.27;1743289;81;25744;-57
2021/04/19 03:17:15;;;;;;;16.55;7.70;;;;;;;9.81;68.05;101197.98;1732694;81;26364;-60
2021/04/19 03:20:11;;;;;;;26.20;10.65;;;;;;;9.85;67.97;101205.31;1729312;80;26188;-59
2021/04/19 03:22:49;;;;;;;15.58;8.50;;;;;;;9.88;67.75;101205.09;1719372;81;28225;-60
2021/04/19 03:25:22;;;;;;;18.00;11.48;;;;;;;9.86;67.47;101207.03;1730064;82;26547;-60
2021/04/19 03:27:55;;;;;;;25.27;12.35;;;;;;;9.81;67.30;101206.55;1754163;80;25762;-59
2021/04/19 03:30:25;;;;;;;18.05;12.37;;;;;;;9.75;67.45;101213.26;1756189;80;25674;-57
2021/04/19 03:33:00;;;;;;;16.77;11.35;;;;;;;9.64;67.34;101204.67;1793124;79;25734;-58
2021/04/19 03:35:37;;;;;;;26.12;13.62;;;;;;;9.57;67.48;101208.81;1787460;79;27516;-59
2021/04/19 03:38:13;;;;;;;18.50;12.58;;;;;;;9.51;67.74;101210.14;1768835;79;25756;-60
2021/04/19 03:40:51;;;;;;;34.98;15.05;;;;;;;9.45;67.67;101213.30;1789202;79;25700;-58
2021/04/19 03:43:23;;;;;;;43.80;17.55;;;;;;;9.39;67.72;101211.94;1783885;79;25909;-57
2021/04/19 03:46:05;;;;;;;20.82;10.38;;;;;;;9.37;67.47;101213.05;1782500;79;26065;-59
2021/04/19 03:48:43;;;;;;;15.07;9.57;;;;;;;9.34;68.22;101207.89;1780643;78;27565;-57
2021/04/19 03:51:17;;;;;;;24.82;11.95;;;;;;;9.34;68.52;101207.42;1775405;79;25748;-57
2021/04/19 03:53:49;;;;;;;24.98;12.88;;;;;;;9.31;68.31;101211.67;1775197;79;25458;-58
2021/04/19 03:56:21;;;;;;;23.92;11.88;;;;;;;9.29;68.36;101216.30;1791089;79;26234;-58
2021/04/19 03:58:52;;;;;;;29.82;13.08;;;;;;;9.26;68.26;101211.66;1808154;79;26080;-57
2021/04/19 04:01:23;;;;;;;24.52;11.12;;;;;;;9.23;68.36;101212.75;1793111;79;28486;-58
2021/04/19 04:03:57;;;;;;;21.85;9.53;;;;;;;9.20;68.54;101211.63;1791353;79;26357;-60
2021/04/19 04:06:29;;;;;;;16.48;9.63;;;;;;;9.23;69.19;101213.59;1784659;79;25826;-57
2021/04/19 04:08:59;;;;;;;14.98;8.30;;;;;;;9.27;69.39;101207.53;1805113;78;25752;-57
2021/04/19 04:11:28;;;;;;;10.00;7.55;;;;;;;9.32;70.04;101204.50;1772464;79;26088;-58
2021/04/19 04:14:07;;;;;;;32.40;9.08;;;;;;;9.37;70.20;101205.83;1800378;79;27530;-58
2021/04/19 04:16:45;;;;;;;10.05;7.33;;;;;;;9.44;69.91;101202.19;1797324;79;26158;-57
2021/04/19 04:19:15;;;;;;;13.68;8.30;;;;;;;9.50;69.85;101199.53;1797088;78;25805;-58
2021/04/19 04:21:52;;;;;;;16.65;9.23;;;;;;;9.57;69.83;101197.23;1780877;79;26038;-58
2021/04/19 04:24:22;;;;;;;13.83;8.65;;;;;;;9.62;69.76;101201.27;1793421;79;26578;-58
2021/04/19 04:26:53;;;;;;;13.28;7.95;;;;;;;9.67;69.65;101198.23;1803032;78;28487;-58
2021/04/19 04:29:27;;;;;;;15.85;7.80;;;;;;;9.75;69.50;101200.30;1793430;79;26295;-57
2021/04/19 04:32:00;;;;;;;13.83;8.45;;;;;;;9.82;69.41;101208.23;1794892;79;25942;-59
2021/04/19 04:34:30;;;;;;;11.65;8.10;;;;;;;9.89;69.26;101198.73;1795737;79;25799;-58
2021/04/19 04:37:01;;;;;;;12.88;8.00;;;;;;;9.90;69.23;101200.45;1795969;79;25745;-59
2021/04/19 04:39:31;;;;;;;13.25;7.25;;;;;;;9.86;69.21;101197.13;1794856;79;27504;-57
2021/04/19 04:42:01;;;;;;;13.83;7.10;;;;;;;9.86;69.08;101198.97;1773917;79;25782;-57
2021/04/19 04:44:34;;;;;;;9.48;6.80;;;;;;;9.92;69.48;101203.00;1772096;79;25697;-59
2021/04/19 04:47:21;;;;;;;12.33;7.12;;;;;;;9.95;69.67;101200.93;1735153;82;27273;-57
2021/04/19 04:50:10;;;;;;;333.52;110.95;;;;;;;9.98;69.46;101198.48;1735325;82;25751;-58
2021/04/19 04:52:55;;;;;;;34.18;15.50;;;;;;;10.02;69.15;101199.96;1735214;82;28000;-57
2021/04/19 04:55:25;;;;;;;13.78;8.43;;;;;;;10.08;68.90;101197.28;1756085;80;26364;-63
2021/04/19 04:57:55;;;;;;;13.60;8.63;;;;;;;10.09;68.49;101195.80;1765721;81;25786;-57
2021/04/19 05:00:23;;;;;;;12.05;8.00;;;;;;;10.08;68.08;101187.87;1765856;81;25695;-58
2021/04/19 05:02:55;;;;;;;12.93;8.30;;;;;;;10.07;68.39;101188.34;1761937;80;25935;-57
2021/04/19 05:05:24;;;;;;;16.55;8.93;;;;;;;10.00;68.18;101186.63;1763741;80;27530;-57
2021/04/19 05:07:53;;;;;;;17.17;9.28;;;;;;;10.02;68.19;101186.02;1769473;80;25767;-58
2021/04/19 05:10:22;;;;;;;21.30;11.10;;;;;;;10.03;67.94;101189.58;1728768;81;25934;-56
2021/04/19 05:12:50;;;;;;;18.90;11.43;;;;;;;10.07;67.94;101187.50;1737247;81;25763;-57
2021/04/19 05:15:18;;;;;;;24.70;12.50;;;;;;;10.06;67.90;101183.09;1734079;80;25716;-57
2021/04/19 05:17:47;;;;;;;25.35;10.75;;;;;;;10.06;68.05;101186.63;1734609;81;27545;-57
2021/04/19 05:20:17;;;;;;;37.63;13.75;;;;;;;10.02;67.93;101183.33;1731801;80;26183;-57
2021/04/19 05:22:46;;;;;;;27.70;11.18;;;;;;;10.02;68.06;101189.20;1741675;80;25692;-59
2021/04/19 05:25:17;;;;;;;27.40;12.23;;;;;;;10.02;67.87;101188.70;1749988;80;26170;-60
2021/04/19 05:27:45;;;;;;;35.15;13.00;;;;;;;10.03;67.67;101191.77;1735148;82;26078;-63
2021/04/19 05:30:15;;;;;;;44.18;20.62;;;;;;;10.03;67.55;101185.05;1728104;81;27633;-60
2021/04/19 05:32:43;;;;;;;23.95;13.13;;;;;;;10.08;67.64;101191.40;1727136;82;25882;-57
2021/04/19 05:35:13;;;;;;;19.75;12.03;;;;;;;10.11;67.50;101194.32;1736829;81;25852;-57
2021/04/19 05:37:43;;;;;;;22.32;11.70;;;;;;;10.14;67.49;101196.78;1751373;80;25680;-59
2021/04/19 05:40:14;;;;;;;19.98;11.57;;;;;;;10.21;67.66;101192.61;1771262;79;25502;-57
2021/04/19 05:42:43;;;;;;;24.47;12.30;;;;;;;10.25;67.40;101190.05;1756979;80;26907;-59
2021/04/19 05:45:17;;;;;;;23.87;10.60;;;;;;;10.31;67.07;101192.23;1768375;80;25806;-62
2021/04/19 05:47:47;;;;;;;38.73;11.88;;;;;;;10.41;66.89;101188.84;1769742;80;25469;-57
2021/04/19 05:50:19;;;;;;;17.80;10.68;;;;;;;10.52;66.64;101187.48;1767979;80;25959;-57
2021/04/19 05:52:51;;;;;;;21.77;10.30;;;;;;;10.61;66.49;101186.72;1769878;80;25498;-58
2021/04/19 05:55:24;;;;;;;29.90;10.13;;;;;;;10.72;66.45;101176.88;1770101;80;27609;-57
2021/04/19 05:58:23;;;;;;;20.88;9.88;;;;;;;10.79;65.55;101185.67;1769723;80;25667;-57
2021/04/19 06:01:08;;;;;;;24.77;8.63;;;;;;;10.84;64.24;101182.60;1773110;79;25682;-57
2021/04/19 06:04:01;;;;;;;12.03;8.10;;;;;;;10.87;63.87;101177.45;1770249;80;25674;-58
2021/04/19 06:07:07;;;;;;;27.83;9.20;;;;;;;10.88;63.09;101180.50;1774866;80;25430;-57
2021/04/19 06:09:50;;;;;;;14.65;7.92;;;;;;;10.87;62.67;101177.45;1767940;79;27538;-56
2021/04/19 06:12:27;;;;;;;23.73;9.48;;;;;;;10.87;61.94;101183.70;1745773;80;26108;-57
2021/04/19 06:15:05;;;;;;;13.72;8.28;;;;;;;10.77;61.53;101178.72;1772032;80;25910;-57
2021/04/19 06:17:37;;;;;;;14.33;9.05;;;;;;;10.82;61.53;101184.55;1780022;79;26586;-58
2021/04/19 06:20:10;;;;;;;14.28;9.53;;;;;;;10.84;61.79;101181.25;1792844;79;25640;-58
2021/04/19 06:22:48;;;;;;;14.75;9.10;;;;;;;11.01;62.03;101180.33;1782440;79;27643;-58
2021/04/19 06:25:45;;;;;;;16.40;10.18;;;;;;;11.19;61.83;101183.32;1744254;80;25841;-57
2021/04/19 06:28:37;;;;;;;16.40;9.55;;;;;;;11.31;60.75;101179.56;1769027;80;26012;-57
2021/04/19 06:31:47;;;;;;;17.15;9.75;;;;;;;11.39;60.45;101171.67;1747402;81;25658;-57
2021/04/19 06:34:17;;;;;;;16.12;9.25;;;;;;;11.51;60.77;101175.66;1768934;80;25797;-57
2021/04/19 06:36:49;;;;;;;14.65;9.40;;;;;;;11.56;60.02;101174.28;1769988;78;28531;-57
2021/04/19 06:39:20;;;;;;;20.72;10.55;;;;;;;11.66;59.76;101169.44;1777257;80;25639;-57
2021/04/19 06:41:51;;;;;;;19.32;9.63;;;;;;;11.70;59.59;101176.25;1771634;79;25496;-57
2021/04/19 06:44:23;;;;;;;16.05;9.30;;;;;;;11.68;59.53;101177.74;1769559;80;25647;-57
2021/04/19 06:46:54;;;;;;;16.48;9.50;;;;;;;11.75;59.66;101182.11;1769630;80;25710;-57
2021/04/19 06:49:26;;;;;;;19.75;11.50;;;;;;;11.76;59.17;101183.83;1782998;79;27523;-57
2021/04/19 06:51:57;;;;;;;21.97;11.28;;;;;;;11.85;59.58;101180.80;1768989;80;25802;-57
2021/04/19 06:54:25;;;;;;;26.73;11.38;;;;;;;11.99;59.46;101175.09;1770771;80;25639;-57
2021/04/19 06:56:56;;;;;;;14.60;9.03;;;;;;;12.17;59.31;101181.20;1758759;80;26600;-58
2021/04/19 06:59:29;;;;;;;16.07;9.53;;;;;;;12.25;58.38;101180.02;1751452;81;25708;-57
2021/04/19 07:01:56;;;;;;;16.87;9.78;;;;;;;12.24;57.77;101184.20;1729967;81;27438;-57
2021/04/19 07:04:28;;;;;;;30.30;11.18;;;;;;;12.27;58.37;101188.83;1750808;81;25634;-58
2021/04/19 07:06:59;;;;;;;34.55;11.53;;;;;;;12.35;58.51;101183.59;1736417;80;25750;-58
2021/04/19 07:09:30;;;;;;;21.95;11.43;;;;;;;12.42;58.35;101195.17;1750826;80;26522;-57
2021/04/19 07:12:13;;;;;;;28.85;12.25;;;;;;;12.46;58.27;101199.32;1728320;80;25724;-58
2021/04/19 07:14:41;;;;;;;38.33;11.57;;;;;;;12.45;58.39;101196.27;1767041;79;28364;-57
2021/04/19 07:17:19;;;;;;;17.20;9.83;;;;;;;12.41;58.15;101197.03;1780221;80;26075;-58
2021/04/19 07:19:57;;;;;;;26.97;12.43;;;;;;;12.46;57.77;101191.23;1746992;81;25731;-58
2021/04/19 07:22:40;;;;;;;20.37;10.60;;;;;;;12.50;57.71;101190.81;1770042;80;26906;-59
2021/04/19 07:25:25;;;;;;;18.48;9.93;;;;;;;12.48;57.13;101195.96;1780008;79;26138;-58
2021/04/19 07:28:07;;;;;;;21.17;10.82;;;;;;;12.47;57.30;101189.73;1776486;79;27585;-58
2021/04/19 07:31:13;;;;;;;17.35;10.40;;;;;;;12.59;57.81;101186.41;1767581;79;25525;-58
2021/04/19 07:33:49;;;;;;;15.18;9.75;;;;;;;12.68;56.91;101184.73;1770441;79;26640;-57
2021/04/19 07:36:27;;;;;;;16.42;10.55;;;;;;;12.53;56.44;101185.11;1775414;79;26402;-58
2021/04/19 07:38:59;;;;;;;14.93;9.93;;;;;;;12.53;56.58;101186.47;1769870;80;26199;-57
2021/04/19 07:42:01;;;;;;;13.13;9.40;;;;;;;12.52;55.99;101190.16;1781031;79;27585;-57
2021/04/19 07:44:43;;;;;;;14.80;9.15;;;;;;;12.63;56.65;101190.55;1735484;82;26831;-57
2021/04/19 07:47:41;;;;;;;18.55;10.65;;;;;;;12.82;56.82;101185.66;1700263;83;25686;-55
2021/04/19 07:50:24;;;;;;;18.20;10.63;;;;;;;13.05;56.79;101186.72;1742099;81;25746;-56
2021/04/19 07:53:02;;;;;;;15.38;9.83;;;;;;;13.27;56.20;101185.57;1728051;81;26120;-56
2021/04/19 07:55:33;;;;;;;19.50;10.10;;;;;;;13.40;55.79;101183.11;1718936;83;27524;-56
2021/04/19 07:58:06;;;;;;;22.40;11.65;;;;;;;13.51;54.83;101182.95;1757106;80;25876;-57
2021/04/19 08:00:38;;;;;;;22.85;11.90;;;;;;;13.63;54.82;101180.09;1769921;81;25673;-56
2021/04/19 08:03:15;;;;;;;30.02;13.18;;;;;;;13.73;54.27;101176.35;1764852;80;25698;-57
2021/04/19 08:05:51;;;;;;;25.80;12.45;;;;;;;13.83;53.85;101177.66;1754716;80;25614;-56
2021/04/19 08:08:37;;;;;;;21.73;11.93;;;;;;;13.87;54.00;101178.22;1760747;80;28570;-57
2021/04/19 08:11:10;;;;;;;22.62;12.28;;;;;;;13.90;54.00;101182.83;1701518;83;26110;-57
2021/04/19 08:13:39;;;;;;;24.30;11.03;;;;;;;13.97;54.22;101175.48;1731909;82;25732;-57
2021/04/19 08:16:26;;;;;;;21.62;11.12;;;;;;;14.04;52.95;101172.02;1695349;83;26442;-57
2021/04/19 08:19:04;;;;;;;25.45;11.18;;;;;;;14.02;52.88;101174.05;1706938;83;25691;-57
2021/04/19 08:21:34;;;;;;;23.98;10.93;;;;;;;14.05;53.08;101162.91;1735476;82;28573;-57
2021/04/19 08:24:15;;;;;;;21.12;11.28;;;;;;;14.16;52.76;101165.07;1706109;84;25863;-57
2021/04/19 08:26:56;;;;;;;14.58;10.10;;;;;;;14.33;52.38;101171.03;1706121;84;25697;-57
2021/04/19 08:29:39;;;;;;;25.50;10.72;;;;;;;14.44;51.67;101167.77;1725817;82;25912;-57
2021/04/19 08:32:08;;;;;;;14.28;9.50;;;;;;;14.63;50.85;101166.78;1767311;80;25441;-61
2021/04/19 08:34:37;;;;;;;14.23;9.58;;;;;;;14.66;50.67;101151.11;1712875;83;27549;-57
2021/04/19 08:37:08;;;;;;;16.07;9.75;;;;;;;14.74;50.56;101154.92;1764961;80;25740;-57
2021/04/19 08:39:38;;;;;;;18.57;10.25;;;;;;;14.83;50.38;101155.36;1710044;83;25759;-58
2021/04/19 08:42:10;;;;;;;21.73;11.25;;;;;;;14.93;50.70;101156.09;1777240;80;25736;-58
2021/04/19 08:44:42;;;;;;;15.08;10.08;;;;;;;15.13;51.10;101150.52;1770554;80;26320;-59
2021/04/19 08:47:21;;;;;;;18.92;10.88;;;;;;;15.38;50.81;101143.43;1701675;83;28526;-58
2021/04/19 08:49:52;;;;;;;18.52;10.85;;;;;;;15.64;50.60;101135.27;1731369;82;25818;-62
2021/04/19 08:52:23;;;;;;;20.95;10.90;;;;;;;15.95;50.07;101140.75;1729859;82;25673;-56
2021/04/19 08:54:52;;;;;;;22.20;10.20;;;;;;;16.11;48.92;101135.88;1767076;80;25670;-56
2021/04/19 08:57:21;;;;;;;18.23;10.38;;;;;;;16.33;49.48;101130.86;1765098;80;25722;-57
2021/04/19 08:59:52;;;;;;;17.70;9.68;;;;;;;16.54;49.04;101129.88;1769970;81;28311;-57
2021/04/19 09:02:22;;;;;;;16.90;10.05;;;;;;;16.58;48.36;101128.55;1768155;80;25500;-57
2021/04/19 09:05:08;;;;;;;22.90;10.25;;;;;;;16.66;47.23;101122.78;1746532;80;26026;-57
2021/04/19 09:07:41;;;;;;;16.35;11.00;;;;;;;16.67;46.52;101117.20;1770042;81;25867;-57
2021/04/19 09:10:14;;;;;;;17.55;10.60;;;;;;;16.55;45.41;101121.24;1764026;80;25501;-56
2021/04/19 09:12:46;;;;;;;13.58;10.10;;;;;;;16.41;45.70;101124.09;1763123;80;27547;-56
2021/04/19 09:15:28;;;;;;;16.97;9.45;;;;;;;16.33;45.56;101115.94;1770408;80;25602;-57
2021/04/19 09:18:08;;;;;;;18.20;9.93;;;;;;;16.32;46.13;101123.73;1765152;80;25651;-56
2021/04/19 09:20:55;;;;;;;18.32;10.20;;;;;;;16.45;46.83;101124.61;1769582;81;25768;-57
2021/04/19 09:23:27;;;;;;;14.98;8.55;;;;;;;16.48;46.57;101120.22;1756279;80;26081;-56
2021/04/19 09:25:59;;;;;;;23.20;8.95;;;;;;;16.42;45.69;101119.02;1755507;80;27585;-60
2021/04/19 09:28:43;;;;;;;15.40;9.28;;;;;;;16.27;45.87;101115.56;1768216;80;26201;-58
2021/04/19 09:31:13;;;;;;;18.85;8.70;;;;;;;16.30;46.44;101116.25;1777926;80;25738;-56
2021/04/19 09:33:41;;;;;;;19.17;9.45;;;;;;;16.25;46.59;101116.75;1770770;80;25808;-56
2021/04/19 09:36:10;;;;;;;15.85;9.53;;;;;;;16.16;46.03;101112.31;1770065;81;26039;-56
2021/04/19 09:38:49;;;;;;;14.00;9.20;;;;;;;16.08;46.34;101113.98;1769948;80;27591;-57
2021/04/19 09:41:15;;;;;;;12.95;8.93;;;;;;;16.05;46.16;101111.59;1766748;80;25767;-56
2021/04/19 09:43:59;;;;;;;17.10;10.15;;;;;;;15.88;46.78;101111.19;1774528;79;25429;-57
2021/04/19 09:46:27;;;;;;;20.45;9.38;;;;;;;15.80;47.47;101106.04;1772816;80;25784;-57
2021/04/19 09:48:59;;;;;;;11.00;8.43;;;;;;;15.70;47.61;101112.09;1772114;78;25718;-57
2021/04/19 09:51:38;;;;;;;13.45;9.30;;;;;;;15.55;47.69;101110.50;1774667;80;27525;-60
2021/04/19 09:54:14;;;;;;;12.80;9.10;;;;;;;15.43;47.57;101109.91;1781079;79;25762;-56
2021/04/19 09:56:50;;;;;;;11.70;9.13;;;;;;;15.24;47.36;101104.72;1806528;79;25634;-56
2021/04/19 09:59:21;;;;;;;16.48;9.50;;;;;;;14.91;47.71;101108.52;1781831;79;25614;-57
2021/04/19 10:01:54;;;;;;;18.07;9.63;;;;;;;14.63;48.16;101112.14;1772852;79;25509;-57
2021/04/19 10:04:24;;;;;;;20.27;10.10;;;;;;;14.44;48.58;101111.77;1774320;79;33409;-56
2021/04/19 10:07:02;;;;;;;16.48;9.35;;;;;;;14.29;49.04;101114.17;1778661;79;26441;-56
2021/04/19 10:09:31;;;;;;;13.95;9.43;;;;;;;14.16;48.89;101113.67;1782052;80;25685;-56
2021/04/19 10:12:07;;;;;;;16.48;9.48;;;;;;;14.00;49.59;101117.02;1761623;81;26422;-56
2021/04/19 10:14:37;;;;;;;15.60;10.10;;;;;;;13.90;50.23;101116.56;1774716;79;26125;-56
2021/04/19 10:17:17;;;;;;;16.62;10.15;;;;;;;13.86;50.05;101117.88;1796596;79;27421;-57
2021/04/19 10:19:46;;;;;;;16.82;10.32;;;;;;;13.87;50.38;101116.02;1797551;79;25715;-57
2021/04/19 10:22:17;;;;;;;13.85;8.63;;;;;;;13.93;50.13;101110.03;1815984;78;25781;-57
2021/04/19 10:24:57;;;;;;;13.60;9.05;;;;;;;14.00;49.54;101110.25;1777250;78;25692;-57
2021/04/19 10:27:29;;;;;;;33.50;9.28;;;;;;;14.05;48.89;101110.16;1791069;79;25772;-57
2021/04/19 10:30:19;;;;;;;16.32;9.40;;;;;;;14.04;48.90;101109.80;1793939;79;27539;-55
2021/04/19 10:32:50;;;;;;;15.00;8.75;;;;;;;14.09;49.30;101110.70;1793789;78;25651;-56
2021/04/19 10:35:41;;;;;;;14.05;7.65;;;;;;;14.20;49.47;101102.91;1802878;79;25725;-57
2021/04/19 10:38:12;;;;;;;11.70;7.40;;;;;;;14.33;49.03;101095.77;1792371;79;25848;-56
2021/04/19 10:40:40;;;;;;;12.78;9.25;;;;;;;14.33;48.02;101094.41;1798127;78;25970;-57
2021/04/19 10:43:13;;;;;;;11.75;8.48;;;;;;;14.43;48.07;101090.28;1797829;78;27516;-56
2021/04/19 10:45:43;;;;;;;11.43;8.65;;;;;;;14.60;48.29;101085.36;1794971;79;26691;-57
2021/04/19 10:48:30;;;;;;;14.00;8.50;;;;;;;14.87;48.36;101079.53;1795875;78;25674;-58
2021/04/19 10:51:21;;;;;;;11.08;7.47;;;;;;;15.10;47.58;101084.47;1793122;79;25884;-59
2021/04/19 10:53:49;;;;;;;10.78;7.65;;;;;;;15.24;47.29;101085.75;1733655;81;25947;-57
2021/04/19 10:56:24;;;;;;;16.62;8.65;;;;;;;15.37;47.34;101082.61;1710711;83;28554;-57
2021/04/19 10:59:07;;;;;;;15.25;8.70;;;;;;;15.46;46.25;101081.13;1711868;83;25878;-57
2021/04/19 11:01:44;;;;;;;16.60;7.95;;;;;;;15.51;46.42;101077.09;1711618;83;25734;-57
2021/04/19 11:04:13;;;;;;;14.07;7.58;;;;;;;15.58;46.12;101080.34;1725041;82;25698;-56
2021/04/19 11:06:41;;;;;;;10.68;8.20;;;;;;;15.62;45.94;101070.87;1717925;82;25524;-59
2021/04/19 11:09:19;;;;;;;12.68;7.47;;;;;;;15.70;45.54;101072.76;1721331;82;27527;-58
2021/04/19 11:11:51;;;;;;;12.63;7.72;;;;;;;15.76;45.31;101066.70;1733395;82;25590;-58
2021/04/19 11:14:25;;;;;;;16.80;8.40;;;;;;;15.69;44.75;101068.34;1705043;82;25491;-58
2021/04/19 11:17:03;;;;;;;10.85;7.60;;;;;;;15.54;45.36;101077.63;1731567;82;25786;-57
2021/04/19 11:19:47;;;;;;;11.75;8.25;;;;;;;15.49;45.54;101077.23;1741218;82;25785;-57
2021/04/19 11:22:29;;;;;;;12.47;7.65;;;;;;;15.39;45.24;101071.94;1732875;82;27545;-58
2021/04/19 11:25:22;;;;;;;12.28;7.90;;;;;;;15.31;45.51;101074.09;1687933;83;25539;-57
2021/04/19 11:27:55;;;;;;;23.67;8.55;;;;;;;15.25;45.46;101067.96;1671853;84;25760;-57
2021/04/19 11:30:27;;;;;;;15.13;7.30;;;;;;;15.23;45.78;101072.69;1677055;81;25744;-57
2021/04/19 11:33:11;;;;;;;16.27;7.47;;;;;;;15.19;45.54;101079.45;1679924;84;25441;-57
2021/04/19 11:36:02;;;;;;;10.20;7.58;;;;;;;15.21;45.71;101069.80;1832989;78;25505;-56
2021/04/19 11:38:33;;;;;;;11.90;7.00;;;;;;;15.15;45.71;101075.34;1805512;79;26330;-56
2021/04/19 11:41:05;;;;;;;11.73;7.92;;;;;;;15.10;45.81;101073.11;1765933;80;27602;-56
2021/04/19 11:43:37;;;;;;;10.05;7.60;;;;;;;15.07;46.00;101077.48;1798653;78;25642;-57
2021/04/19 11:46:14;;;;;;;14.65;7.53;;;;;;;15.03;45.58;101067.47;1808774;77;25945;-56
2021/04/19 11:48:46;;;;;;;11.33;7.92;;;;;;;14.98;45.73;101059.46;1808770;78;25728;-57
2021/04/19 11:51:18;;;;;;;12.63;8.03;;;;;;;14.95;45.88;101057.09;1808668;79;26139;-56
2021/04/19 11:53:48;;;;;;;13.75;8.03;;;;;;;14.92;45.99;101051.48;1817140;78;27522;-55
2021/04/19 11:56:20;;;;;;;13.75;7.55;;;;;;;14.91;46.31;101050.27;1767341;80;25656;-56